Tailwind — D5LG6 — position and weather

sailwx.info

Track history (hours):
 
Tides and Currents Weather Stations Pressure Air Temp Water Temp Dewpoint Dewpoint Depression Visibility Wind Speed Wind Dir Waves Ship Positions

Tailwind

Last reported at 2017-Oct-18 22:54 UTC. Time now 2017-Oct-19 00:24 UTC.
Position N 46°23' E 031°02'.

Length 149 m; draft 6.4 m.

Type: Ship. MMSI: 636017499.

Date/timePositionNaut miles runAvg speedWind from/ knotsBaromVisibWave heightAir tempDewpointWater temp
2017-Oct-18 22:54N 46°23' E 031°02'0 0.0
2017-Oct-18 21:48N 46°23' E 031°02'87 1.9
2017-Oct-16 23:02N 44°58' E 030°39'1912.4
2017-Oct-16 21:29N 44°40' E 030°32'612.5
2017-Oct-16 21:00N 44°34' E 030°30'612.4
2017-Oct-16 20:30N 44°28' E 030°27'612.2
2017-Oct-16 20:00N 44°22' E 030°25'912.2
2017-Oct-16 19:14N 44°13' E 030°21'312.1
2017-Oct-16 19:00N 44°10' E 030°20'612.1
2017-Oct-16 18:30N 44°04' E 030°18'1711.9
2017-Oct-16 17:05N 43°48' E 030°11'111.8
2017-Oct-16 16:58N 43°47' E 030°11'1311.7
2017-Oct-16 15:53N 43°35' E 030°06'16611.1
2017-Oct-16 00:58N 40°56' E 028°59'5 9.4
2017-Oct-16 00:26N 40°52' E 028°55'3 7.2
2017-Oct-15 23:59N 40°50' E 028°53'0 0.1
2017-Oct-15 22:21N 40°49' E 028°53'0 0.2
2017-Oct-15 19:19N 40°50' E 028°53'0 0.3
2017-Oct-15 18:56N 40°50' E 028°53'0 0.2
2017-Oct-15 18:07N 40°49' E 028°53'0 0.5
2017-Oct-15 17:46N 40°49' E 028°53'0 0.6
2017-Oct-15 17:30N 40°49' E 028°53'1 2.3
2017-Oct-15 17:00N 40°48' E 028°53'0 0.1
2017-Oct-15 16:07N 40°48' E 028°53'0 1.0
2017-Oct-15 15:56N 40°48' E 028°52'2 1.3
2017-Oct-15 14:40N 40°50' E 028°53'  
2017-Oct-12 16:17N 36°13' E 014°34'312.2
2017-Oct-12 16:00N 36°13' E 014°30'3 5.9
2017-Oct-12 15:30N 36°14' E 014°26'612.0
2017-Oct-12 15:00N 36°16' E 014°19'611.9
2017-Oct-12 14:30N 36°17' E 014°12'612.0
2017-Oct-12 14:00N 36°19' E 014°05'612.0
2017-Oct-12 13:30N 36°21' E 013°58'611.8
2017-Oct-12 13:00N 36°23' E 013°51'611.9
2017-Oct-12 12:30N 36°26' E 013°44'  
Track history (hours):
 
Tides and Currents Weather Stations Pressure Air Temp Water Temp Dewpoint Dewpoint Depression Visibility Wind Speed Wind Dir Waves Ship Positions

Tailwind

Last reported at 2017-Oct-18 22:54 UTC. Time now 2017-Oct-19 00:24 UTC.
Position N 46°23' E 031°02'.

Length 149 m; draft 6.4 m.

Type: Ship. MMSI: 636017499.

Date/timePositionNaut miles runAvg speedWind from/ knotsBaromVisibWave heightAir tempDewpointWater temp
2017-Oct-18 22:54N 46°23' E 031°02'0 0.0
2017-Oct-18 21:48N 46°23' E 031°02'87 1.9
2017-Oct-16 23:02N 44°58' E 030°39'1912.4
2017-Oct-16 21:29N 44°40' E 030°32'612.5
2017-Oct-16 21:00N 44°34' E 030°30'612.4
2017-Oct-16 20:30N 44°28' E 030°27'612.2
2017-Oct-16 20:00N 44°22' E 030°25'912.2
2017-Oct-16 19:14N 44°13' E 030°21'312.1
2017-Oct-16 19:00N 44°10' E 030°20'612.1
2017-Oct-16 18:30N 44°04' E 030°18'1711.9
2017-Oct-16 17:05N 43°48' E 030°11'111.8
2017-Oct-16 16:58N 43°47' E 030°11'1311.7
2017-Oct-16 15:53N 43°35' E 030°06'16611.1
2017-Oct-16 00:58N 40°56' E 028°59'5 9.4
2017-Oct-16 00:26N 40°52' E 028°55'3 7.2
2017-Oct-15 23:59N 40°50' E 028°53'0 0.1
2017-Oct-15 22:21N 40°49' E 028°53'0 0.2
2017-Oct-15 19:19N 40°50' E 028°53'0 0.3
2017-Oct-15 18:56N 40°50' E 028°53'0 0.2
2017-Oct-15 18:07N 40°49' E 028°53'0 0.5
2017-Oct-15 17:46N 40°49' E 028°53'0 0.6
2017-Oct-15 17:30N 40°49' E 028°53'1 2.3
2017-Oct-15 17:00N 40°48' E 028°53'0 0.1
2017-Oct-15 16:07N 40°48' E 028°53'0 1.0
2017-Oct-15 15:56N 40°48' E 028°52'2 1.3
2017-Oct-15 14:40N 40°50' E 028°53'  
2017-Oct-12 16:17N 36°13' E 014°34'312.2
2017-Oct-12 16:00N 36°13' E 014°30'3 5.9
2017-Oct-12 15:30N 36°14' E 014°26'612.0
2017-Oct-12 15:00N 36°16' E 014°19'611.9
2017-Oct-12 14:30N 36°17' E 014°12'612.0
2017-Oct-12 14:00N 36°19' E 014°05'612.0
2017-Oct-12 13:30N 36°21' E 013°58'611.8
2017-Oct-12 13:00N 36°23' E 013°51'611.9
2017-Oct-12 12:30N 36°26' E 013°44'  

Dump ship's entire track history